Airfield :
LOGIN :

Register | Disclaimer

   EN    FR    IT 

 










Legend :    VFR   Marginal VFR   IFR   Intensive IFR   Very Intensive IFR
Visi :
Ceiling :
>= 8 km
>= 3000ft
5 to 8 km
1000 to 3000 ft
1500m to 5 km
500 to 1000 ft
800 to 1500m
200 to 500 ft
< 800m
< 200 ft
Symbols :   Thunderstorms  Fog  Heavy snow  Heavy precipitations  Wind > 20 kt
SIGMETs :     Misc.  Thunderstorms  Icing  Turbulence  Mountain Waves  Volcanic Ashes







- Airport Elevation : 913 ft
- Download approach charts


LFSX - Luxeuil

CURRENT METAR :
  • 141500Z AUTO 21015KT 9999 -RA SCT025 BKN042 BKN049 06/03 Q1001 BECMG 22015G25KT 4000 RA SCT015TCU OVC025

EXPIRED METARs :
  • 141430Z AUTO 21013KT 9999 FEW026 BKN054 BKN064 06/02 Q1001 BECMG 22015G25KT 4000 RA SCT015TCU OVC025
  • 141400Z AUTO 20012KT 9999 SCT028 BKN054 BKN074 06/03 Q1001 NOSIG
  • 141330Z AUTO 21015KT 9999 SCT025 SCT031 BKN039 07/03 Q1002 BECMG 23005G15KT
  • 141300Z AUTO 22014KT 9999 SCT024 BKN031 BKN039 07/03 Q1002 TEMPO 3000 SHRA SCT020TCU BKN030
  • 141230Z AUTO 22015KT 9999 BKN027 BKN035 BKN042 07/03 Q1003 TEMPO 3000 SHRA SCT020TCU BKN030 BECMG 23005G15KT
  • 141200Z AUTO 22016KT 9999 FEW028 BKN036 OVC180 07/03 Q1004 TEMPO 3000 SHRA SCT020TCU BKN030 BECMG 23005G15KT

TAF TAF LFSX
Valid from the 14 at 09:00 until the 15 at 09:00 UTC


140800Z 1409/1509 23005G15KT CAVOK
TEMPO 1411/1414 3000 SHRA SCT020TCU BKN030
BECMG 1416/1418 22015G25KT 4000 RA SCT015TCU OVC025
TEMPO 1418/1503 VRB20G40KT 2000 TSSN BKN010CB OVC020
BECMG 1503/1505 24005G15KT 9999 NSW BKN025
TEMPO 1507/1509 4000 SHRA SCT020TCU
No reported NOTAMs for that airfield.
1 SIGMET reported for the Reims FIR (LFEE) :
 
Severe turbulence
LFEE SIGMET 4 VALID 141300/141500 LFPW
LFEE REIMS FIR/UIR SEV TURB OBS AT 1300Z S OF N4700 AND W OF E00530 FL160/250 STNR NC=



MET'MAP, your aeronautical weather chart ! - Copyright ORBIFLY December 2007 - Disclaimer

ORBIFLY MET'MAP TEAM :

Programming & Development : Alexandra Zaïnal
Concept & Development : Baudouin d'Aumeries
Co-Development & Prog : Marc-Olivier Méhu
Technical & hardware support : Manuel Goepfert

Contact : metmap@orbifly.com




SOURCES & CREDITS :

   NOAA